GCLA/SPC METAR and TAF weather

Enter ICAO airport designator
Station Type Date Time Source
GCLA METAR 2020/07/11 05:00 UTC NOAA

GCLA 110500Z AUTO 34012KT 9999 FEW022 22/17 Q1014


Station Type Date Time Source
GCLA Decoded METAR 2020/07/11 05:00 UTC NOAA

La Palma / Aeropuerto, Spain (GCLA) 28-37N 017-45W 31M
Jul 11, 2020 - 01:00 AM EDT / 2020.07.11 0500 UTC
Wind: from the NNW (340 degrees) at 14 MPH (12 KT):0
Visibility: greater than 7 mile(s):0
Sky conditions: mostly clear
Temperature: 71 F (22 C)
Dew Point: 62 F (17 C)
Relative Humidity: 73%
Pressure (altimeter): 29.94 in. Hg (1014 hPa)
ob: GCLA 110500Z AUTO 34012KT 9999 FEW022 22/17 Q1014
cycle: 5

Station Type Date Time Source
GCLA TAF 2020/07/11 03:27 UTC NOAA

TAF GCLA 110200Z 1103/1203 36015KT 9999 BKN025 TX25/1114Z TN20/1106Z

Example: see airport list